createdAt,value
2024-01-29T00:02:35.475Z,21.6
2024-01-29T00:08:34.982Z,21.6
2024-01-29T00:14:31.698Z,21.6
2024-01-29T00:20:26.676Z,21.6
2024-01-29T00:26:20.924Z,21.6
2024-01-29T00:32:00.485Z,21.6
2024-01-29T00:38:00.259Z,21.6
2024-01-29T00:43:55.004Z,21.7
2024-01-29T00:49:34.539Z,21.7
2024-01-29T00:55:36.375Z,21.7
2024-01-29T01:01:31.377Z,21.7
2024-01-29T01:07:33.015Z,21.7
2024-01-29T01:13:26.556Z,21.8
2024-01-29T01:19:06.101Z,21.8
2024-01-29T01:25:01.016Z,21.8
2024-01-29T01:30:55.236Z,21.8
2024-01-29T01:36:50.434Z,21.8
2024-01-29T01:42:47.290Z,21.8
2024-01-29T01:48:49.336Z,21.8
2024-01-29T01:54:44.126Z,21.8
2024-01-29T02:00:41.988Z,21.8
2024-01-29T02:06:37.522Z,21.8
2024-01-29T02:12:32.213Z,21.8
2024-01-29T02:18:26.453Z,21.8
2024-01-29T02:24:21.270Z,21.8
2024-01-29T02:30:15.899Z,21.8
2024-01-29T02:36:12.933Z,21.8
2024-01-29T02:42:07.153Z,21.8
2024-01-29T02:47:46.315Z,21.8
2024-01-29T02:53:41.718Z,21.8
2024-01-29T02:59:35.820Z,21.8
2024-01-29T03:05:31.514Z,21.8
2024-01-29T03:11:30.175Z,21.8
2024-01-29T03:17:10.727Z,21.8
2024-01-29T03:23:06.418Z,21.8
2024-01-29T03:29:03.724Z,21.8
2024-01-29T03:34:58.239Z,21.8
2024-01-29T03:40:37.095Z,21.8
2024-01-29T03:46:31.251Z,21.8
2024-01-29T03:52:26.136Z,21.8
2024-01-29T03:58:23.519Z,21.8
2024-01-29T04:04:21.109Z,21.8
2024-01-29T04:10:01.321Z,21.8
2024-01-29T04:15:55.152Z,21.8
2024-01-29T04:21:55.677Z,21.8
2024-01-29T04:27:52.876Z,21.8
2024-01-29T04:33:32.139Z,21.8
2024-01-29T04:39:27.133Z,21.7
2024-01-29T04:45:22.346Z,21.8
2024-01-29T04:51:03.428Z,21.8
2024-01-29T04:56:42.595Z,21.7
2024-01-29T05:02:06.188Z,21.7
2024-01-29T05:07:49.691Z,21.7
2024-01-29T05:13:29.701Z,21.7
2024-01-29T05:18:53.544Z,21.7
2024-01-29T05:24:35.968Z,21.6
2024-01-29T05:30:30.268Z,21.7
2024-01-29T05:36:19.481Z,21.7
2024-01-29T05:41:42.340Z,21.7
2024-01-29T05:47:36.727Z,21.6
2024-01-29T05:53:16.158Z,21.6
2024-01-29T05:59:10.518Z,21.6
2024-01-29T06:04:50.121Z,21.6
2024-01-29T06:10:32.324Z,21.6
2024-01-29T06:16:13.405Z,21.6
2024-01-29T06:22:19.367Z,21.6
2024-01-29T06:28:01.025Z,21.6
2024-01-29T06:33:57.512Z,21.6
2024-01-29T06:39:52.860Z,21.6
2024-01-29T06:45:49.326Z,21.6
2024-01-29T06:51:44.346Z,21.6
2024-01-29T06:57:39.359Z,21.6
2024-01-29T07:03:35.308Z,21.5
2024-01-29T07:09:34.397Z,21.5
2024-01-29T07:15:28.901Z,21.5
2024-01-29T07:21:25.234Z,21.5
2024-01-29T07:27:04.006Z,21.5
2024-01-29T07:33:00.358Z,21.5
2024-01-29T07:38:56.196Z,21.4
2024-01-29T07:44:53.179Z,21.4
2024-01-29T07:50:48.123Z,21.4
2024-01-29T07:56:44.445Z,21.4
2024-01-29T08:02:41.607Z,21.4
2024-01-29T08:08:37.145Z,21.4
2024-01-29T08:14:32.261Z,21.4
2024-01-29T08:20:33.396Z,21.4
2024-01-29T08:26:28.580Z,21.4
2024-01-29T08:32:24.379Z,21.4
2024-01-29T08:38:20.497Z,21.4
2024-01-29T08:44:14.914Z,21.4
2024-01-29T08:50:12.490Z,21.4
2024-01-29T08:56:12.503Z,21.4
2024-01-29T09:02:08.192Z,21.3
2024-01-29T09:08:09.196Z,21.4
2024-01-29T09:14:09.589Z,21.3
2024-01-29T09:19:50.485Z,21.3
2024-01-29T09:25:44.897Z,21.3
2024-01-29T09:31:43.577Z,21.3
2024-01-29T09:37:49.529Z,21.2
2024-01-29T09:43:46.448Z,21.1
2024-01-29T09:49:28.648Z,21.1
2024-01-29T09:55:10.899Z,21.1
2024-01-29T10:01:06.958Z,21
2024-01-29T10:07:04.075Z,21.1
2024-01-29T10:12:42.942Z,21.1
2024-01-29T10:18:37.198Z,21.1
2024-01-29T10:40:56.119Z,21.2
2024-01-29T11:21:04.618Z,21.1
2024-01-29T11:32:49.171Z,21.1
2024-01-29T11:38:56.545Z,21.1
2024-01-29T11:44:53.648Z,21.1
2024-01-29T11:50:51.422Z,21.1
2024-01-29T11:56:44.226Z,21
2024-01-29T12:02:40.150Z,21
2024-01-29T12:08:23.935Z,21.1
2024-01-29T12:14:18.286Z,21
2024-01-29T12:20:14.675Z,21
2024-01-29T12:26:12.213Z,21
2024-01-29T12:32:07.019Z,21
2024-01-29T12:37:49.010Z,21
2024-01-29T12:43:46.444Z,21
2024-01-29T12:49:41.828Z,21
2024-01-29T12:55:36.785Z,20.9
2024-01-29T13:01:01.444Z,21
2024-01-29T13:07:03.399Z,21
2024-01-29T13:13:01.493Z,21
2024-01-29T13:18:57.009Z,21
2024-01-29T13:24:36.245Z,21
2024-01-29T13:30:33.263Z,21.1
2024-01-29T13:36:16.755Z,21.1
2024-01-29T13:42:14.042Z,21.1
2024-01-29T13:48:11.396Z,21.1
2024-01-29T13:54:06.655Z,21.1
2024-01-29T14:00:03.099Z,21.1
2024-01-29T14:05:59.540Z,21
2024-01-29T14:11:55.919Z,21
2024-01-29T14:18:06.478Z,21
2024-01-29T14:24:02.312Z,21
2024-01-29T14:29:57.344Z,21
2024-01-29T14:35:57.059Z,21
2024-01-29T14:41:55.133Z,21
2024-01-29T14:47:53.129Z,21
2024-01-29T14:53:49.246Z,20.9
2024-01-29T14:59:45.872Z,20.9
2024-01-29T15:05:42.400Z,20.9
2024-01-29T15:11:39.844Z,20.9
2024-01-29T15:17:36.431Z,20.9
2024-01-29T15:23:34.706Z,20.9
2024-01-29T15:29:30.540Z,20.9
2024-01-29T15:35:25.399Z,20.9
2024-01-29T15:41:22.027Z,20.9
2024-01-29T15:47:21.880Z,20.9
2024-01-29T15:53:20.238Z,20.9
2024-01-29T15:59:14.487Z,20.9
2024-01-29T16:05:09.117Z,20.9
2024-01-29T16:11:04.130Z,20.9
2024-01-29T16:17:02.154Z,20.9
2024-01-29T16:22:57.802Z,20.9
2024-01-29T16:28:52.659Z,20.9
2024-01-29T16:34:48.909Z,20.9
2024-01-29T16:40:47.641Z,20.9
2024-01-29T16:46:41.556Z,20.9
2024-01-29T16:52:37.977Z,20.9
2024-01-29T16:58:33.220Z,20.9
2024-01-29T17:04:29.681Z,20.9
2024-01-29T17:10:26.481Z,20.9
2024-01-29T17:16:22.964Z,20.9
2024-01-29T17:22:22.612Z,20.9
2024-01-29T17:28:16.678Z,20.9
2024-01-29T17:34:12.833Z,20.9
2024-01-29T17:40:07.974Z,20.9
2024-01-29T17:46:04.069Z,20.9
2024-01-29T17:51:59.913Z,20.9
2024-01-29T17:57:56.994Z,21
2024-01-29T18:03:52.663Z,21
2024-01-29T18:09:32.189Z,21
2024-01-29T18:15:10.085Z,21
2024-01-29T18:20:53.336Z,21
2024-01-29T18:26:34.847Z,21
2024-01-29T18:32:28.839Z,21
2024-01-29T18:38:23.890Z,21.1
2024-01-29T18:44:18.292Z,21.1
2024-01-29T18:50:16.720Z,21
2024-01-29T18:56:11.419Z,21.1
2024-01-29T19:02:06.418Z,21.1
2024-01-29T19:08:06.994Z,21.1
2024-01-29T19:14:06.651Z,21.1
2024-01-29T19:37:00.373Z,21.2
2024-01-29T19:42:55.658Z,21.2
2024-01-29T19:48:50.184Z,21.3
2024-01-29T19:54:47.807Z,21.3
2024-01-29T20:00:42.891Z,21.3
2024-01-29T20:06:38.557Z,21.3
2024-01-29T20:12:34.816Z,21.3
2024-01-29T20:18:30.523Z,21.3
2024-01-29T20:24:26.109Z,21.3
2024-01-29T20:30:22.025Z,21.3
2024-01-29T20:36:18.488Z,21.4
2024-01-29T20:42:32.407Z,21.4
2024-01-29T20:48:12.731Z,21.4
2024-01-29T20:54:08.780Z,21.4
2024-01-29T21:00:14.686Z,21.4
2024-01-29T21:06:11.642Z,21.4
2024-01-29T21:11:54.228Z,21.6
2024-01-29T21:17:48.542Z,21.5
2024-01-29T21:23:43.777Z,21.5
2024-01-29T21:29:37.907Z,21.6
2024-01-29T21:35:35.734Z,21.6
2024-01-29T21:41:13.890Z,21.6
2024-01-29T21:47:08.112Z,21.6
2024-01-29T21:53:03.927Z,21.6
2024-01-29T21:58:58.526Z,21.6
2024-01-29T22:04:56.033Z,21.6
2024-01-29T22:10:35.686Z,21.6
2024-01-29T22:16:14.542Z,21.6
2024-01-29T22:21:54.907Z,21.6
2024-01-29T22:27:52.281Z,21.6
2024-01-29T22:33:46.723Z,21.7
2024-01-29T22:39:26.083Z,21.7
2024-01-29T22:45:20.542Z,21.7
2024-01-29T22:50:59.916Z,21.7
2024-01-29T22:56:56.392Z,21.7
2024-01-29T23:02:37.426Z,21.7
2024-01-29T23:08:33.107Z,21.8
2024-01-29T23:14:27.053Z,21.8
2024-01-29T23:20:06.093Z,21.7
2024-01-29T23:26:03.613Z,21.8
2024-01-29T23:31:57.897Z,21.8
2024-01-29T23:37:52.773Z,21.8
2024-01-29T23:43:46.315Z,21.8
2024-01-29T23:49:24.796Z,21.8
2024-01-29T23:55:04.155Z,21.8
